createdAt,value
2023-01-29T00:01:59.873Z,5.47
2023-01-29T00:04:26.976Z,6.07
2023-01-29T00:06:54.043Z,5.03
2023-01-29T00:09:21.203Z,6.00
2023-01-29T00:11:48.480Z,6.17
2023-01-29T00:14:15.753Z,5.53
2023-01-29T00:16:42.983Z,6.70
2023-01-29T00:19:10.153Z,6.47
2023-01-29T00:21:37.322Z,6.63
2023-01-29T00:24:04.726Z,6.47
2023-01-29T00:26:32.233Z,6.20
2023-01-29T00:29:00.685Z,6.17
2023-01-29T00:31:28.110Z,5.77
2023-01-29T00:33:55.228Z,5.90
2023-01-29T00:36:23.462Z,5.93
2023-01-29T00:39:00.634Z,5.67
2023-01-29T00:41:49.216Z,4.97
2023-01-29T00:44:35.237Z,5.43
2023-01-29T00:47:03.436Z,5.30
2023-01-29T00:49:38.266Z,5.07
2023-01-29T00:52:24.009Z,4.60
2023-01-29T00:54:55.794Z,4.47
2023-01-29T00:57:25.053Z,4.40
2023-01-29T00:59:52.267Z,4.23
2023-01-29T01:02:38.074Z,4.37
2023-01-29T01:05:07.794Z,4.00
2023-01-29T01:07:34.905Z,4.27
2023-01-29T01:10:20.440Z,4.53
2023-01-29T01:13:08.584Z,4.60
2023-01-29T01:15:38.576Z,4.63
2023-01-29T01:18:06.346Z,4.50
2023-01-29T01:20:36.327Z,4.50
2023-01-29T01:23:04.223Z,4.23
2023-01-29T01:25:31.486Z,3.57
2023-01-29T01:28:02.725Z,3.80
2023-01-29T01:30:29.814Z,4.23
2023-01-29T01:32:56.875Z,4.73
2023-01-29T01:35:24.026Z,4.17
2023-01-29T01:37:51.057Z,4.13
2023-01-29T01:40:23.611Z,4.73
2023-01-29T01:42:59.706Z,4.67
2023-01-29T01:45:36.585Z,4.23
2023-01-29T01:48:26.937Z,4.27
2023-01-29T01:51:05.194Z,4.70
2023-01-29T01:53:42.506Z,4.40
2023-01-29T01:56:21.396Z,4.87
2023-01-29T01:58:56.943Z,4.57
2023-01-29T02:01:29.919Z,4.73
2023-01-29T02:04:48.872Z,4.83
2023-01-29T02:07:34.969Z,4.97
2023-01-29T02:10:20.844Z,5.17
2023-01-29T02:12:48.531Z,5.30
2023-01-29T02:15:15.561Z,5.70
2023-01-29T02:17:42.588Z,5.57
2023-01-29T02:20:26.528Z,5.10
2023-01-29T02:23:54.600Z,5.83
2023-01-29T02:26:49.572Z,5.93
2023-01-29T02:29:34.530Z,6.03
2023-01-29T02:32:22.297Z,6.23
2023-01-29T02:35:26.158Z,7.03
2023-01-29T02:38:23.594Z,6.60
2023-01-29T02:41:01.141Z,6.50
2023-01-29T02:43:53.082Z,7.07
2023-01-29T02:46:51.072Z,6.37
2023-01-29T02:49:50.113Z,6.53
2023-01-29T02:52:30.037Z,6.07
2023-01-29T02:55:12.580Z,6.53
2023-01-29T02:57:45.000Z,6.23
2023-01-29T03:00:27.797Z,5.87
2023-01-29T03:02:56.551Z,7.03
2023-01-29T03:05:44.898Z,6.17
2023-01-29T03:08:18.562Z,7.03
2023-01-29T03:10:57.599Z,6.63
2023-01-29T03:14:07.490Z,6.50
2023-01-29T03:16:46.245Z,5.97
2023-01-29T03:19:34.544Z,6.13
2023-01-29T03:22:04.544Z,6.43
2023-01-29T03:25:00.961Z,6.23
2023-01-29T03:28:17.300Z,6.50
2023-01-29T03:31:26.900Z,5.57
2023-01-29T03:34:35.237Z,6.47
2023-01-29T03:37:38.001Z,6.30
2023-01-29T03:40:07.127Z,6.07
2023-01-29T03:42:51.775Z,5.67
2023-01-29T03:45:31.976Z,5.87
2023-01-29T03:48:22.669Z,5.83
2023-01-29T03:51:08.252Z,6.27
2023-01-29T03:54:07.647Z,4.83
2023-01-29T03:56:50.379Z,6.07
2023-01-29T03:59:41.184Z,5.50
2023-01-29T04:02:16.826Z,6.27
2023-01-29T04:04:50.209Z,6.27
2023-01-29T04:07:24.477Z,5.90
2023-01-29T04:10:19.185Z,6.40
2023-01-29T04:13:09.404Z,5.93
2023-01-29T04:15:47.167Z,6.53
2023-01-29T04:18:14.471Z,5.97
2023-01-29T04:20:42.140Z,6.20
2023-01-29T04:23:23.021Z,6.57
2023-01-29T04:26:08.073Z,6.23
2023-01-29T04:28:59.929Z,6.27
2023-01-29T04:31:40.058Z,5.93
2023-01-29T04:34:29.474Z,6.03
2023-01-29T04:37:02.975Z,6.57
2023-01-29T04:39:46.735Z,5.87
2023-01-29T04:42:32.948Z,5.97
2023-01-29T04:45:06.789Z,5.93
2023-01-29T04:48:12.909Z,5.80
2023-01-29T04:50:56.807Z,6.00
2023-01-29T04:53:43.435Z,5.67
2023-01-29T04:56:41.143Z,5.70
2023-01-29T04:59:14.587Z,6.67
2023-01-29T05:01:42.020Z,6.43
2023-01-29T05:04:14.512Z,5.47
2023-01-29T05:06:43.245Z,6.23
2023-01-29T05:09:12.892Z,6.40
2023-01-29T05:11:40.767Z,6.73
2023-01-29T05:14:11.721Z,6.10
2023-01-29T05:16:51.665Z,6.03
2023-01-29T05:19:18.987Z,6.60
2023-01-29T05:21:49.728Z,6.97
2023-01-29T05:24:23.365Z,6.00
2023-01-29T05:27:12.277Z,6.47
2023-01-29T05:29:47.135Z,6.43
2023-01-29T05:32:15.590Z,7.27
2023-01-29T05:34:42.874Z,6.90
2023-01-29T05:37:10.593Z,6.43
2023-01-29T05:39:37.646Z,6.70
2023-01-29T05:42:04.738Z,7.00
2023-01-29T05:44:31.837Z,6.77
2023-01-29T05:46:58.836Z,7.00
2023-01-29T05:49:26.024Z,6.47
2023-01-29T05:51:53.066Z,6.90
2023-01-29T05:54:20.157Z,7.03
2023-01-29T05:56:47.335Z,6.90
2023-01-29T05:59:16.229Z,6.70
2023-01-29T06:01:43.662Z,7.50
2023-01-29T06:04:10.820Z,6.90
2023-01-29T06:06:37.868Z,7.10
2023-01-29T06:09:04.996Z,7.20
2023-01-29T06:11:31.991Z,6.70
2023-01-29T06:13:58.971Z,7.27
2023-01-29T06:16:26.068Z,7.57
2023-01-29T06:18:53.132Z,7.60
2023-01-29T06:21:20.306Z,9.10
2023-01-29T06:23:47.506Z,7.57
2023-01-29T06:26:16.067Z,8.60
2023-01-29T06:28:45.924Z,8.50
2023-01-29T06:31:35.194Z,8.40
2023-01-29T06:33:59.973Z,8.23
2023-01-29T06:36:27.019Z,7.90
2023-01-29T06:38:54.025Z,8.23
2023-01-29T06:41:25.285Z,7.50
2023-01-29T06:43:52.617Z,8.40
2023-01-29T06:46:20.045Z,8.67
2023-01-29T06:48:47.141Z,8.30
2023-01-29T06:51:14.321Z,8.23
2023-01-29T06:53:42.809Z,8.00
2023-01-29T06:56:10.434Z,8.60
2023-01-29T06:58:38.431Z,8.50
2023-01-29T07:01:08.125Z,8.80
2023-01-29T07:03:35.649Z,8.40
2023-01-29T07:06:03.254Z,8.50
2023-01-29T07:08:30.266Z,7.93
2023-01-29T07:11:01.132Z,9.43
2023-01-29T07:13:28.748Z,8.33
2023-01-29T07:16:02.918Z,8.37
2023-01-29T07:18:31.000Z,8.70
2023-01-29T07:20:58.380Z,7.90
2023-01-29T07:23:25.917Z,8.30
2023-01-29T07:25:52.990Z,9.23
2023-01-29T07:28:20.750Z,8.40
2023-01-29T07:30:47.917Z,9.03
2023-01-29T07:33:14.917Z,9.30
2023-01-29T07:35:43.768Z,8.37
2023-01-29T07:38:12.094Z,8.63
2023-01-29T07:40:39.186Z,8.17
2023-01-29T07:43:09.677Z,9.37
2023-01-29T07:45:39.447Z,8.63
2023-01-29T07:48:10.439Z,9.13
2023-01-29T07:50:37.709Z,8.50
2023-01-29T07:53:04.912Z,8.57
2023-01-29T07:55:33.251Z,8.17
2023-01-29T07:58:03.293Z,8.67
2023-01-29T08:00:32.246Z,8.37
2023-01-29T08:03:05.383Z,8.60
2023-01-29T08:05:32.639Z,9.23
2023-01-29T08:08:06.584Z,8.73
2023-01-29T08:10:36.787Z,9.07
2023-01-29T08:13:05.575Z,7.57
2023-01-29T08:15:33.557Z,8.10
2023-01-29T08:18:02.385Z,8.13
2023-01-29T08:20:29.551Z,8.60
2023-01-29T08:23:06.022Z,8.83
2023-01-29T08:25:33.748Z,7.70
2023-01-29T08:28:01.708Z,8.03
2023-01-29T08:30:32.219Z,8.13
2023-01-29T08:32:59.308Z,7.67
2023-01-29T08:35:27.113Z,7.83
2023-01-29T08:37:59.763Z,7.97
2023-01-29T08:40:31.917Z,7.43
2023-01-29T08:43:06.283Z,8.13
2023-01-29T08:45:42.958Z,7.97
2023-01-29T08:48:10.857Z,9.50
2023-01-29T08:50:38.083Z,7.97
2023-01-29T08:53:08.528Z,7.90
2023-01-29T08:55:37.796Z,8.83
2023-01-29T08:58:07.188Z,7.70
2023-01-29T09:00:35.141Z,8.23
2023-01-29T09:03:03.253Z,7.93
2023-01-29T09:05:30.515Z,7.90
2023-01-29T09:07:58.147Z,8.47
2023-01-29T09:10:25.432Z,9.70
2023-01-29T09:12:52.422Z,9.33
2023-01-29T09:15:19.718Z,8.33
2023-01-29T09:17:46.989Z,7.70
2023-01-29T09:20:14.006Z,7.77
2023-01-29T09:22:41.659Z,7.17
2023-01-29T09:25:09.118Z,6.87
2023-01-29T09:27:36.146Z,7.97
2023-01-29T09:30:05.381Z,8.07
2023-01-29T09:32:53.697Z,8.43
2023-01-29T09:35:23.487Z,7.90
2023-01-29T09:37:52.019Z,8.73
2023-01-29T09:40:30.235Z,8.40
2023-01-29T09:43:12.872Z,9.33
2023-01-29T09:45:51.661Z,8.13
2023-01-29T09:48:19.637Z,8.20
2023-01-29T09:50:51.596Z,8.60
2023-01-29T09:53:42.943Z,8.40
2023-01-29T09:56:20.352Z,8.73
2023-01-29T09:58:48.051Z,8.57
2023-01-29T10:02:07.327Z,7.80
2023-01-29T10:05:21.350Z,8.20
2023-01-29T10:08:13.749Z,7.83
2023-01-29T10:11:16.923Z,7.77
2023-01-29T10:14:03.373Z,7.77
2023-01-29T10:16:51.461Z,8.50
2023-01-29T10:19:45.164Z,8.00
2023-01-29T10:22:53.744Z,8.50
2023-01-29T10:25:22.988Z,7.97
2023-01-29T10:27:58.156Z,7.90
2023-01-29T10:30:32.405Z,8.80
2023-01-29T10:33:04.738Z,9.17
2023-01-29T10:35:50.352Z,7.70
2023-01-29T10:38:38.860Z,7.90
2023-01-29T10:41:11.614Z,7.37
2023-01-29T10:44:15.587Z,8.53
2023-01-29T10:47:11.227Z,7.83
2023-01-29T10:49:41.017Z,8.10
2023-01-29T10:53:09.204Z,8.40
2023-01-29T10:55:57.001Z,9.10
2023-01-29T10:58:29.866Z,9.03
2023-01-29T11:00:57.184Z,9.20
2023-01-29T11:03:29.354Z,8.70
2023-01-29T11:06:13.070Z,9.53
2023-01-29T11:08:48.380Z,9.00
2023-01-29T11:11:22.361Z,9.27
2023-01-29T11:14:02.862Z,8.20
2023-01-29T11:16:33.293Z,9.23
2023-01-29T11:19:01.667Z,8.60
2023-01-29T11:21:29.841Z,8.63
2023-01-29T11:24:18.707Z,9.57
2023-01-29T11:26:49.529Z,9.70
2023-01-29T11:29:43.087Z,9.83
2023-01-29T11:32:32.740Z,9.13
2023-01-29T11:35:22.398Z,8.73
2023-01-29T11:37:49.597Z,10.07
2023-01-29T11:40:27.843Z,8.77
2023-01-29T11:42:54.838Z,7.97
2023-01-29T11:45:25.293Z,9.37
2023-01-29T11:47:57.291Z,8.93
2023-01-29T11:50:28.895Z,9.20
2023-01-29T11:52:58.352Z,9.10
2023-01-29T11:55:48.246Z,8.50
2023-01-29T11:58:27.185Z,9.40
2023-01-29T12:00:55.608Z,8.50
2023-01-29T12:03:53.182Z,9.10
2023-01-29T12:06:31.961Z,8.77
2023-01-29T12:09:02.296Z,9.20
2023-01-29T12:11:35.276Z,8.40
2023-01-29T12:14:05.796Z,9.37
2023-01-29T12:16:59.791Z,8.80
2023-01-29T12:19:48.953Z,9.80
2023-01-29T12:22:44.031Z,9.53
2023-01-29T12:25:39.403Z,9.93
2023-01-29T12:28:24.711Z,9.70
2023-01-29T12:31:23.997Z,10.60
2023-01-29T12:34:20.454Z,9.73
2023-01-29T12:37:12.346Z,10.03
2023-01-29T12:39:39.354Z,10.20
2023-01-29T12:42:19.163Z,10.03
2023-01-29T12:45:01.606Z,10.57
2023-01-29T12:47:46.999Z,10.87
2023-01-29T12:50:29.303Z,9.83
2023-01-29T12:53:34.550Z,10.40
2023-01-29T12:56:29.334Z,10.30
2023-01-29T12:58:59.174Z,10.60
2023-01-29T13:01:38.028Z,10.73
2023-01-29T13:04:14.406Z,11.47
2023-01-29T13:06:54.236Z,11.03
2023-01-29T13:09:28.372Z,11.33
2023-01-29T13:12:11.906Z,11.67
2023-01-29T13:15:05.654Z,11.67
2023-01-29T13:17:47.620Z,11.63
2023-01-29T13:20:28.003Z,12.27
2023-01-29T13:23:15.404Z,11.70
2023-01-29T13:25:43.232Z,13.13
2023-01-29T13:28:25.605Z,12.90
2023-01-29T13:31:12.282Z,12.10
2023-01-29T13:33:43.273Z,12.10
2023-01-29T13:36:28.712Z,12.20
2023-01-29T13:39:16.232Z,12.37
2023-01-29T13:41:43.872Z,11.10
2023-01-29T13:44:36.697Z,13.13
2023-01-29T13:47:11.550Z,12.67
2023-01-29T13:50:06.678Z,12.50
2023-01-29T13:52:44.601Z,13.23
2023-01-29T13:55:14.351Z,14.40
2023-01-29T13:57:44.349Z,14.20
2023-01-29T14:00:34.409Z,14.20
2023-01-29T14:03:01.318Z,13.43
2023-01-29T14:05:31.305Z,13.60
2023-01-29T14:08:03.603Z,14.40
2023-01-29T14:10:36.806Z,14.00
2023-01-29T14:13:03.664Z,14.03
2023-01-29T14:15:36.343Z,15.17
2023-01-29T14:18:09.041Z,15.07
2023-01-29T14:20:47.965Z,15.70
2023-01-29T14:23:42.079Z,15.57
2023-01-29T14:26:31.748Z,15.40
2023-01-29T14:28:58.738Z,15.10
2023-01-29T14:31:38.964Z,16.93
2023-01-29T14:34:28.257Z,16.40
2023-01-29T14:37:27.749Z,16.13
2023-01-29T14:40:20.695Z,15.57
2023-01-29T14:42:57.801Z,16.80
2023-01-29T14:45:41.950Z,15.60
2023-01-29T14:48:11.763Z,16.83
2023-01-29T14:50:50.944Z,15.87
2023-01-29T14:53:45.558Z,15.97
2023-01-29T14:56:36.617Z,16.53
2023-01-29T14:59:16.651Z,17.30
2023-01-29T15:01:58.770Z,16.27
2023-01-29T15:04:40.466Z,17.27
2023-01-29T15:07:10.477Z,16.90
2023-01-29T15:09:48.008Z,17.50
2023-01-29T15:12:36.428Z,17.73
2023-01-29T15:15:49.605Z,16.37
2023-01-29T15:18:42.397Z,17.33
2023-01-29T15:21:17.703Z,17.33
2023-01-29T15:23:48.399Z,16.40
2023-01-29T15:26:26.961Z,16.20
2023-01-29T15:29:04.937Z,15.20
2023-01-29T15:31:33.124Z,15.53
2023-01-29T15:34:07.255Z,14.80
2023-01-29T15:36:36.632Z,14.57
2023-01-29T15:39:19.023Z,13.97
2023-01-29T15:41:47.237Z,13.37
2023-01-29T15:44:18.714Z,13.97
2023-01-29T15:46:57.131Z,12.87
2023-01-29T15:49:32.042Z,13.13
2023-01-29T15:52:03.601Z,13.50
2023-01-29T15:54:35.454Z,12.60
2023-01-29T15:57:03.581Z,13.03
2023-01-29T15:59:35.538Z,11.83
2023-01-29T16:02:38.492Z,12.93
2023-01-29T16:05:13.766Z,13.07
2023-01-29T16:07:42.261Z,13.67
2023-01-29T16:10:27.316Z,14.40
2023-01-29T16:12:55.619Z,14.97
2023-01-29T16:15:35.962Z,14.17
2023-01-29T16:18:20.677Z,14.03
2023-01-29T16:20:53.754Z,14.70
2023-01-29T16:23:29.563Z,15.00
2023-01-29T16:26:05.260Z,14.70
2023-01-29T16:28:32.752Z,15.27
2023-01-29T16:31:03.861Z,15.80
2023-01-29T16:33:38.333Z,14.97
2023-01-29T16:36:23.906Z,16.33
2023-01-29T16:39:01.734Z,16.77
2023-01-29T16:41:38.285Z,16.13
2023-01-29T16:44:35.207Z,17.13
2023-01-29T16:47:14.451Z,16.83
2023-01-29T16:49:48.762Z,17.70
2023-01-29T16:52:25.361Z,16.93
2023-01-29T16:55:00.688Z,16.37
2023-01-29T16:57:33.300Z,18.03
2023-01-29T17:00:06.475Z,17.60
2023-01-29T17:02:39.098Z,17.53
2023-01-29T17:05:16.842Z,17.50
2023-01-29T17:07:46.476Z,17.97
2023-01-29T17:10:21.554Z,18.20
2023-01-29T17:13:01.003Z,17.97
2023-01-29T17:15:43.134Z,17.07
2023-01-29T17:18:21.477Z,17.47
2023-01-29T17:20:50.465Z,18.77
2023-01-29T17:23:17.533Z,19.03
2023-01-29T17:25:45.599Z,18.47
2023-01-29T17:28:15.667Z,18.07
2023-01-29T17:30:44.916Z,18.17
2023-01-29T17:33:22.848Z,19.33
2023-01-29T17:35:50.401Z,17.80
2023-01-29T17:38:25.850Z,17.83
2023-01-29T17:41:07.574Z,18.23
2023-01-29T17:43:35.107Z,17.90
2023-01-29T17:46:02.267Z,18.83
2023-01-29T17:48:31.188Z,18.47
2023-01-29T17:51:03.830Z,18.67
2023-01-29T17:53:44.904Z,16.83
2023-01-29T17:56:21.439Z,17.77
2023-01-29T17:58:48.473Z,17.43
2023-01-29T18:01:15.604Z,17.47
2023-01-29T18:03:42.695Z,17.87
2023-01-29T18:06:12.706Z,17.23
2023-01-29T18:08:40.307Z,19.23
2023-01-29T18:11:09.888Z,16.97
2023-01-29T18:13:37.228Z,17.77
2023-01-29T18:16:04.424Z,17.77
2023-01-29T18:18:31.498Z,17.87
2023-01-29T18:20:58.529Z,18.40
2023-01-29T18:23:25.593Z,18.27
2023-01-29T18:25:54.721Z,19.03
2023-01-29T18:28:21.709Z,16.40
2023-01-29T18:30:48.726Z,18.13
2023-01-29T18:33:16.951Z,17.47
2023-01-29T18:35:45.739Z,18.13
2023-01-29T18:38:12.760Z,18.13
2023-01-29T18:40:39.974Z,18.73
2023-01-29T18:43:07.506Z,17.03
2023-01-29T18:45:34.544Z,16.87
2023-01-29T18:48:01.715Z,18.63
2023-01-29T18:50:28.695Z,17.90
2023-01-29T18:52:56.442Z,16.67
2023-01-29T18:55:24.314Z,17.70
2023-01-29T18:58:28.186Z,17.67
2023-01-29T19:00:42.525Z,18.97
2023-01-29T19:03:11.207Z,18.20
2023-01-29T19:05:38.343Z,18.53
2023-01-29T19:08:05.885Z,17.83
2023-01-29T19:10:33.603Z,19.13
2023-01-29T19:13:00.665Z,17.93
2023-01-29T19:15:28.079Z,18.40
2023-01-29T19:17:56.082Z,17.97
2023-01-29T19:20:23.309Z,18.00
2023-01-29T19:22:50.401Z,19.03
2023-01-29T19:25:19.604Z,18.70
2023-01-29T19:27:46.884Z,17.43
2023-01-29T19:30:14.167Z,17.40
2023-01-29T19:32:41.471Z,16.90
2023-01-29T19:35:08.587Z,17.77
2023-01-29T19:37:35.814Z,17.60
2023-01-29T19:40:02.901Z,18.60
2023-01-29T19:42:29.981Z,18.83
2023-01-29T19:44:56.959Z,17.97
2023-01-29T19:47:24.057Z,17.30
2023-01-29T19:49:51.174Z,18.70
2023-01-29T19:52:50.212Z,17.83
2023-01-29T19:55:19.198Z,17.27
2023-01-29T19:57:47.235Z,19.00
2023-01-29T20:00:15.570Z,18.57
2023-01-29T20:02:42.651Z,19.13
2023-01-29T20:05:12.067Z,19.57
2023-01-29T20:07:42.605Z,19.47
2023-01-29T20:10:16.958Z,18.03
2023-01-29T20:12:45.699Z,19.90
2023-01-29T20:15:14.738Z,18.17
2023-01-29T20:17:41.792Z,18.93
2023-01-29T20:20:11.582Z,18.67
2023-01-29T20:22:38.602Z,17.33
2023-01-29T20:25:06.144Z,19.40
2023-01-29T20:27:33.156Z,19.63
2023-01-29T20:30:00.183Z,18.30
2023-01-29T20:32:27.221Z,19.33
2023-01-29T20:34:54.284Z,18.60
2023-01-29T20:37:21.299Z,19.63
2023-01-29T20:39:48.419Z,18.47
2023-01-29T20:42:15.433Z,18.67
2023-01-29T20:44:42.488Z,18.70
2023-01-29T20:47:09.658Z,19.23
2023-01-29T20:49:36.707Z,18.50
2023-01-29T20:52:03.762Z,18.03
2023-01-29T20:54:33.239Z,18.83
2023-01-29T20:57:00.541Z,17.73
2023-01-29T20:59:29.213Z,18.47
2023-01-29T21:01:56.340Z,18.33
2023-01-29T21:04:23.509Z,17.50
2023-01-29T21:06:50.574Z,16.87
2023-01-29T21:09:17.587Z,17.07
2023-01-29T21:11:45.140Z,15.90
2023-01-29T21:14:12.580Z,16.83
2023-01-29T21:16:39.985Z,16.63
2023-01-29T21:19:07.103Z,16.40
2023-01-29T21:21:34.736Z,15.40
2023-01-29T21:24:01.763Z,17.20
2023-01-29T21:26:28.850Z,15.67
2023-01-29T21:28:55.859Z,15.40
2023-01-29T21:31:23.058Z,15.50
2023-01-29T21:33:50.266Z,16.27
2023-01-29T21:36:17.312Z,16.93
2023-01-29T21:38:44.438Z,16.27
2023-01-29T21:41:11.469Z,16.50
2023-01-29T21:43:39.104Z,15.93
2023-01-29T21:46:17.221Z,15.83
2023-01-29T21:48:44.317Z,17.40
2023-01-29T21:51:11.327Z,15.13
2023-01-29T21:53:38.476Z,15.77
2023-01-29T21:56:06.217Z,16.90
2023-01-29T21:58:33.397Z,17.27
2023-01-29T22:01:34.538Z,16.77
2023-01-29T22:03:47.783Z,15.60
2023-01-29T22:06:15.550Z,16.57
2023-01-29T22:08:42.711Z,15.37
2023-01-29T22:11:10.410Z,16.57
2023-01-29T22:13:37.681Z,15.87
2023-01-29T22:16:06.062Z,16.53
2023-01-29T22:18:33.702Z,16.73
2023-01-29T22:21:04.144Z,16.97
2023-01-29T22:23:32.361Z,16.87
2023-01-29T22:26:04.789Z,16.83
2023-01-29T22:28:31.796Z,17.63
2023-01-29T22:31:05.601Z,16.93
2023-01-29T22:33:33.554Z,17.43
2023-01-29T22:36:01.297Z,17.33
2023-01-29T22:38:28.905Z,16.80
2023-01-29T22:40:57.724Z,18.17
2023-01-29T22:43:26.074Z,17.27
2023-01-29T22:45:53.214Z,16.90
2023-01-29T22:48:22.221Z,16.73
2023-01-29T22:51:09.421Z,15.87
2023-01-29T22:53:50.473Z,16.33
2023-01-29T22:56:19.270Z,16.87
2023-01-29T22:58:57.990Z,15.13
2023-01-29T23:01:29.207Z,16.37
2023-01-29T23:03:56.537Z,17.30
2023-01-29T23:06:24.077Z,17.63
2023-01-29T23:08:51.898Z,17.23
2023-01-29T23:11:21.498Z,16.63
2023-01-29T23:13:52.153Z,17.47
2023-01-29T23:16:21.974Z,15.83
2023-01-29T23:18:54.580Z,17.07
2023-01-29T23:21:25.096Z,16.00
2023-01-29T23:23:54.252Z,16.70
2023-01-29T23:26:40.161Z,16.20
2023-01-29T23:29:07.192Z,16.53
2023-01-29T23:31:34.182Z,16.77
2023-01-29T23:34:01.390Z,15.07
2023-01-29T23:36:28.570Z,16.10
2023-01-29T23:38:55.665Z,17.30
2023-01-29T23:41:23.026Z,16.07
2023-01-29T23:43:50.234Z,15.13
2023-01-29T23:46:17.248Z,14.87
2023-01-29T23:48:44.301Z,16.20
2023-01-29T23:51:11.427Z,14.63
2023-01-29T23:53:38.838Z,14.97
2023-01-29T23:56:07.016Z,15.67
2023-01-29T23:58:34.212Z,14.40
